createdAt,value
2018-02-11T00:00:04.865Z,1.20
2018-02-11T00:01:06.502Z,1.20
2018-02-11T00:02:05.404Z,1.20
2018-02-11T00:03:05.347Z,1.20
2018-02-11T00:04:04.888Z,1.20
2018-02-11T00:05:06.540Z,1.20
2018-02-11T00:06:04.919Z,1.20
2018-02-11T00:07:05.403Z,1.20
2018-02-11T00:08:04.835Z,1.20
2018-02-11T00:09:05.495Z,1.20
2018-02-11T00:10:05.041Z,1.20
2018-02-11T00:11:09.828Z,1.20
2018-02-11T00:12:04.779Z,1.20
2018-02-11T00:13:05.457Z,1.20
2018-02-11T00:14:05.179Z,1.20
2018-02-11T00:15:05.695Z,1.20
2018-02-11T00:16:05.153Z,1.20
2018-02-11T00:17:04.956Z,1.20
2018-02-11T00:18:05.098Z,1.20
2018-02-11T00:19:04.935Z,1.20
2018-02-11T00:20:05.174Z,1.20
2018-02-11T00:21:04.817Z,1.20
2018-02-11T00:22:05.378Z,1.20
2018-02-11T00:23:05.283Z,1.20
2018-02-11T00:24:05.201Z,1.20
2018-02-11T00:25:05.521Z,1.10
2018-02-11T00:26:05.369Z,1.20
2018-02-11T00:27:04.967Z,1.20
2018-02-11T00:28:04.930Z,1.20
2018-02-11T00:29:05.353Z,1.10
2018-02-11T00:30:04.713Z,1.10
2018-02-11T00:31:05.312Z,1.10
2018-02-11T00:32:05.446Z,1.20
2018-02-11T00:33:05.550Z,1.20
2018-02-11T00:34:04.923Z,1.10
2018-02-11T00:35:05.251Z,1.10
2018-02-11T00:36:05.428Z,1.10
2018-02-11T00:37:04.834Z,1.10
2018-02-11T00:38:04.975Z,1.10
2018-02-11T00:39:05.082Z,1.10
2018-02-11T00:40:05.324Z,1.10
2018-02-11T00:41:05.289Z,1.10
2018-02-11T00:42:05.390Z,1.10
2018-02-11T00:43:04.754Z,1.10
2018-02-11T00:44:04.842Z,1.10
2018-02-11T00:45:04.706Z,1.10
2018-02-11T00:46:04.683Z,1.10
2018-02-11T00:47:05.031Z,1.10
2018-02-11T00:48:05.122Z,1.10
2018-02-11T00:49:05.295Z,1.10
2018-02-11T00:50:05.289Z,1.10
2018-02-11T00:51:04.693Z,1.10
2018-02-11T00:52:05.557Z,1.10
2018-02-11T00:53:05.608Z,1.10
2018-02-11T00:54:05.186Z,1.10
2018-02-11T00:55:04.826Z,1.10
2018-02-11T00:56:04.950Z,1.10
2018-02-11T00:57:05.185Z,1.10
2018-02-11T00:58:05.071Z,1.10
2018-02-11T00:59:04.631Z,1.10
2018-02-11T01:00:05.091Z,1.10
2018-02-11T01:01:04.813Z,1.10
2018-02-11T01:02:05.589Z,1.10
2018-02-11T01:03:05.241Z,1.10
2018-02-11T01:04:05.282Z,1.10
2018-02-11T01:05:05.572Z,1.10
2018-02-11T01:06:05.217Z,1.10
2018-02-11T01:07:05.280Z,1.00
2018-02-11T01:08:05.186Z,1.10
2018-02-11T01:09:04.702Z,1.10
2018-02-11T01:10:05.480Z,1.10
2018-02-11T01:11:05.225Z,1.00
2018-02-11T01:12:05.620Z,1.00
2018-02-11T01:13:05.006Z,1.00
2018-02-11T01:14:05.111Z,1.00
2018-02-11T01:15:05.444Z,1.00
2018-02-11T01:16:05.131Z,1.00
2018-02-11T01:17:05.115Z,1.00
2018-02-11T01:18:04.887Z,1.00
2018-02-11T01:19:05.113Z,1.00
2018-02-11T01:20:04.981Z,1.00
2018-02-11T01:21:04.912Z,1.00
2018-02-11T01:22:04.950Z,1.00
2018-02-11T01:23:05.281Z,1.00
2018-02-11T01:24:05.388Z,1.00
2018-02-11T01:25:04.844Z,1.00
2018-02-11T01:26:05.331Z,1.00
2018-02-11T01:27:05.313Z,1.00
2018-02-11T01:28:05.561Z,0.90
2018-02-11T01:29:05.347Z,0.90
2018-02-11T01:30:05.234Z,0.90
2018-02-11T01:31:04.774Z,0.90
2018-02-11T01:32:04.912Z,0.90
2018-02-11T01:33:04.962Z,0.90
2018-02-11T01:34:04.836Z,0.80
2018-02-11T01:35:04.921Z,0.80
2018-02-11T01:36:05.518Z,0.80
2018-02-11T01:37:05.183Z,0.80
2018-02-11T01:38:05.533Z,0.80
2018-02-11T01:39:05.411Z,0.80
2018-02-11T01:40:04.783Z,0.80
2018-02-11T01:41:04.840Z,0.80
2018-02-11T01:42:05.526Z,0.70
2018-02-11T01:43:05.708Z,0.70
2018-02-11T01:44:05.086Z,0.70
2018-02-11T01:45:04.692Z,0.70
2018-02-11T01:46:05.312Z,0.70
2018-02-11T01:47:05.321Z,0.70
2018-02-11T01:48:04.979Z,0.60
2018-02-11T01:49:05.323Z,0.60
2018-02-11T01:50:04.980Z,0.60
2018-02-11T01:51:04.652Z,0.60
2018-02-11T01:52:04.943Z,0.60
2018-02-11T01:53:04.707Z,0.60
2018-02-11T01:54:05.138Z,0.50
2018-02-11T01:55:05.298Z,0.50
2018-02-11T01:56:04.627Z,0.50
2018-02-11T01:57:06.460Z,0.50
2018-02-11T01:58:05.078Z,0.50
2018-02-11T01:59:05.322Z,0.50
2018-02-11T02:00:05.073Z,0.50
2018-02-11T02:01:04.938Z,0.40
2018-02-11T02:02:05.016Z,0.40
2018-02-11T02:03:05.118Z,0.40
2018-02-11T02:04:05.033Z,0.40
2018-02-11T02:05:05.122Z,0.40
2018-02-11T02:06:05.273Z,0.40
2018-02-11T02:07:04.636Z,0.40
2018-02-11T02:08:05.485Z,0.30
2018-02-11T02:09:05.582Z,0.30
2018-02-11T02:10:05.226Z,0.30
2018-02-11T02:11:05.186Z,0.30
2018-02-11T02:12:04.760Z,0.30
2018-02-11T02:13:04.727Z,0.30
2018-02-11T02:14:05.060Z,0.30
2018-02-11T02:15:05.561Z,0.20
2018-02-11T02:16:04.698Z,0.30
2018-02-11T02:17:05.674Z,0.20
2018-02-11T02:18:05.762Z,0.20
2018-02-11T02:19:05.146Z,0.20
2018-02-11T02:20:05.157Z,0.20
2018-02-11T02:21:05.233Z,0.20
2018-02-11T02:22:04.784Z,0.20
2018-02-11T02:23:05.289Z,0.20
2018-02-11T02:24:05.601Z,0.20
2018-02-11T02:25:04.841Z,0.20
2018-02-11T02:26:04.992Z,0.20
2018-02-11T02:27:04.972Z,0.10
2018-02-11T02:28:05.554Z,0.10
2018-02-11T02:29:04.857Z,0.10
2018-02-11T02:30:05.280Z,0.20
2018-02-11T02:31:04.957Z,0.10
2018-02-11T02:32:05.217Z,0.10
2018-02-11T02:33:05.135Z,0.10
2018-02-11T02:34:04.833Z,0.20
2018-02-11T02:35:05.516Z,0.20
2018-02-11T02:36:05.624Z,0.20
2018-02-11T02:37:05.299Z,0.20
2018-02-11T02:38:04.944Z,0.20
2018-02-11T02:39:05.448Z,0.20
2018-02-11T02:40:04.643Z,0.20
2018-02-11T02:41:04.816Z,0.20
2018-02-11T02:42:05.215Z,0.20
2018-02-11T02:43:05.196Z,0.30
2018-02-11T02:44:05.353Z,0.30
2018-02-11T02:45:05.353Z,0.30
2018-02-11T02:46:05.152Z,0.30
2018-02-11T02:47:04.848Z,0.30
2018-02-11T02:48:04.670Z,0.30
2018-02-11T02:49:05.232Z,0.30
2018-02-11T02:50:04.902Z,0.30
2018-02-11T02:51:05.457Z,0.30
2018-02-11T02:52:04.936Z,0.30
2018-02-11T02:53:05.630Z,0.30
2018-02-11T02:54:05.397Z,0.30
2018-02-11T02:55:04.708Z,0.30
2018-02-11T02:56:05.276Z,0.30
2018-02-11T02:57:05.640Z,0.40
2018-02-11T02:58:05.272Z,0.40
2018-02-11T02:59:05.018Z,0.40
2018-02-11T03:00:05.332Z,0.40
2018-02-11T03:01:04.886Z,0.40
2018-02-11T03:02:05.519Z,0.40
2018-02-11T03:03:05.680Z,0.40
2018-02-11T03:04:04.887Z,0.40
2018-02-11T03:05:05.522Z,0.40
2018-02-11T03:06:04.898Z,0.40
2018-02-11T03:07:05.152Z,0.40
2018-02-11T03:08:05.501Z,0.40
2018-02-11T03:09:04.912Z,0.50
2018-02-11T03:10:05.131Z,0.50
2018-02-11T03:11:05.647Z,0.50
2018-02-11T03:12:05.336Z,0.50
2018-02-11T03:13:05.402Z,0.50
2018-02-11T03:14:04.623Z,0.50
2018-02-11T03:15:04.851Z,0.50
2018-02-11T03:16:04.991Z,0.50
2018-02-11T03:17:05.363Z,0.50
2018-02-11T03:18:05.571Z,0.50
2018-02-11T03:19:05.410Z,0.50
2018-02-11T03:20:05.415Z,0.50
2018-02-11T03:21:05.083Z,0.50
2018-02-11T03:22:04.845Z,0.50
2018-02-11T03:23:04.640Z,0.60
2018-02-11T03:24:04.889Z,0.50
2018-02-11T03:25:05.088Z,0.50
2018-02-11T03:26:05.413Z,0.50
2018-02-11T03:27:05.686Z,0.60
2018-02-11T03:28:05.478Z,0.60
2018-02-11T03:29:05.569Z,0.60
2018-02-11T03:30:04.820Z,0.60
2018-02-11T03:31:05.522Z,0.60
2018-02-11T03:32:05.586Z,0.60
2018-02-11T03:33:05.397Z,0.60
2018-02-11T03:34:04.969Z,0.60
2018-02-11T03:35:05.119Z,0.60
2018-02-11T03:36:05.342Z,0.60
2018-02-11T03:37:04.818Z,0.60
2018-02-11T03:38:06.267Z,0.60
2018-02-11T03:39:04.910Z,0.60
2018-02-11T03:40:05.262Z,0.60
2018-02-11T03:41:04.865Z,0.60
2018-02-11T03:42:04.941Z,0.60
2018-02-11T03:43:04.812Z,0.60
2018-02-11T03:44:05.093Z,0.60
2018-02-11T03:45:05.357Z,0.60
2018-02-11T03:46:04.776Z,0.60
2018-02-11T03:47:05.454Z,0.60
2018-02-11T03:48:05.436Z,0.60
2018-02-11T03:49:04.654Z,0.60
2018-02-11T03:50:05.222Z,0.60
2018-02-11T03:51:05.268Z,0.60
2018-02-11T03:52:05.547Z,0.60
2018-02-11T03:53:04.848Z,0.60
2018-02-11T03:54:05.163Z,0.60
2018-02-11T03:55:05.399Z,0.60
2018-02-11T03:56:04.908Z,0.60
2018-02-11T03:57:05.397Z,0.60
2018-02-11T03:58:04.881Z,0.60
2018-02-11T03:59:04.978Z,0.60
2018-02-11T04:00:05.007Z,0.60
2018-02-11T04:01:04.910Z,0.60
2018-02-11T04:02:04.777Z,0.60
2018-02-11T04:03:05.264Z,0.70
2018-02-11T04:04:04.775Z,0.60
2018-02-11T04:05:05.427Z,0.70
2018-02-11T04:06:04.821Z,0.60
2018-02-11T04:07:05.366Z,0.70
2018-02-11T04:08:05.325Z,0.70
2018-02-11T04:09:04.879Z,0.70
2018-02-11T04:10:04.935Z,0.70
2018-02-11T04:11:04.944Z,0.70
2018-02-11T04:12:05.454Z,0.70
2018-02-11T04:13:05.521Z,0.70
2018-02-11T04:14:05.097Z,0.70
2018-02-11T04:15:05.063Z,0.70
2018-02-11T04:16:04.910Z,0.70
2018-02-11T04:17:04.774Z,0.70
2018-02-11T04:18:05.521Z,0.70
2018-02-11T04:19:05.192Z,0.70
2018-02-11T04:20:05.449Z,0.70
2018-02-11T04:21:04.938Z,0.70
2018-02-11T04:22:05.063Z,0.70
2018-02-11T04:23:05.160Z,0.70
2018-02-11T04:24:04.710Z,0.70
2018-02-11T04:25:05.143Z,0.70
2018-02-11T04:26:05.179Z,0.70
2018-02-11T04:27:05.274Z,0.70
2018-02-11T04:28:05.097Z,0.70
2018-02-11T04:29:05.194Z,0.70
2018-02-11T04:30:05.659Z,0.70
2018-02-11T04:31:05.501Z,0.70
2018-02-11T04:32:04.911Z,0.70
2018-02-11T04:33:05.118Z,0.70
2018-02-11T04:34:05.597Z,0.70
2018-02-11T04:35:05.219Z,0.70
2018-02-11T04:36:04.987Z,0.70
2018-02-11T04:37:05.478Z,0.70
2018-02-11T04:38:04.828Z,0.70
2018-02-11T04:39:05.244Z,0.70
2018-02-11T04:40:05.326Z,0.70
2018-02-11T04:41:05.547Z,0.70
2018-02-11T04:42:05.256Z,0.70
2018-02-11T04:43:04.984Z,0.70
2018-02-11T04:44:05.993Z,0.70
2018-02-11T04:45:05.036Z,0.70
2018-02-11T04:46:05.409Z,0.70
2018-02-11T04:47:05.272Z,0.70
2018-02-11T04:48:05.261Z,0.70
2018-02-11T04:49:04.639Z,0.70
2018-02-11T04:50:05.115Z,0.80
2018-02-11T04:51:04.981Z,0.80
2018-02-11T04:52:04.894Z,0.70
2018-02-11T04:53:05.140Z,0.80
2018-02-11T04:54:05.160Z,0.80
2018-02-11T04:55:05.244Z,0.80
2018-02-11T04:56:05.296Z,0.80
2018-02-11T04:57:05.939Z,0.80
2018-02-11T04:58:05.239Z,0.80
2018-02-11T04:59:05.040Z,0.80
2018-02-11T05:00:05.181Z,0.80
2018-02-11T05:01:04.789Z,0.80
2018-02-11T05:02:05.243Z,0.80
2018-02-11T05:03:04.636Z,0.80
2018-02-11T05:04:04.792Z,0.80
2018-02-11T05:05:05.078Z,0.80
2018-02-11T05:06:04.924Z,0.80
2018-02-11T05:07:04.857Z,0.80
2018-02-11T05:08:05.053Z,0.80
2018-02-11T05:09:05.454Z,0.80
2018-02-11T05:10:06.118Z,0.80
2018-02-11T05:11:04.787Z,0.80
2018-02-11T05:12:05.417Z,0.80
2018-02-11T05:13:05.630Z,0.80
2018-02-11T05:14:05.612Z,0.80
2018-02-11T05:15:05.059Z,0.80
2018-02-11T05:16:04.796Z,0.80
2018-02-11T05:17:05.011Z,0.80
2018-02-11T05:18:05.595Z,0.80
2018-02-11T05:19:04.773Z,0.80
2018-02-11T05:20:05.257Z,0.80
2018-02-11T05:21:05.172Z,0.80
2018-02-11T05:22:05.364Z,0.80
2018-02-11T05:23:04.837Z,0.80
2018-02-11T05:24:05.171Z,0.80
2018-02-11T05:25:05.374Z,0.80
2018-02-11T05:26:04.936Z,0.80
2018-02-11T05:27:04.804Z,0.80
2018-02-11T05:28:04.845Z,0.80
2018-02-11T05:29:05.354Z,0.80
2018-02-11T05:30:04.647Z,0.80
2018-02-11T05:31:04.632Z,0.80
2018-02-11T05:32:05.516Z,0.80
2018-02-11T05:33:04.786Z,0.80
2018-02-11T05:34:04.818Z,0.80
2018-02-11T05:35:05.601Z,0.80
2018-02-11T05:36:05.041Z,0.80
2018-02-11T05:37:05.580Z,0.80
2018-02-11T05:38:05.452Z,0.80
2018-02-11T05:39:05.495Z,0.80
2018-02-11T05:40:04.978Z,0.80
2018-02-11T05:41:05.420Z,0.80
2018-02-11T05:42:05.493Z,0.80
2018-02-11T05:43:04.942Z,0.80
2018-02-11T05:44:05.026Z,0.90
2018-02-11T05:45:04.833Z,0.90
2018-02-11T05:46:04.650Z,0.90
2018-02-11T05:47:05.751Z,0.90
2018-02-11T05:48:05.351Z,0.90
2018-02-11T05:49:05.060Z,0.90
2018-02-11T05:50:04.933Z,0.90
2018-02-11T05:51:05.307Z,0.90
2018-02-11T05:52:04.647Z,0.90
2018-02-11T05:53:05.580Z,0.90
2018-02-11T05:54:05.511Z,0.90
2018-02-11T05:55:04.890Z,0.90
2018-02-11T05:56:05.461Z,0.90
2018-02-11T05:57:05.158Z,0.90
2018-02-11T05:58:05.618Z,0.90
2018-02-11T05:59:05.538Z,0.90
2018-02-11T06:00:05.420Z,0.90
2018-02-11T06:01:04.709Z,0.90
2018-02-11T06:02:04.904Z,0.90
2018-02-11T06:03:04.859Z,0.90
2018-02-11T06:04:04.733Z,0.90
2018-02-11T06:05:06.256Z,0.90
2018-02-11T06:06:05.057Z,0.90
2018-02-11T06:07:05.197Z,0.80
2018-02-11T06:08:04.723Z,0.90
2018-02-11T06:09:05.301Z,0.80
2018-02-11T06:10:05.100Z,0.80
2018-02-11T06:11:04.747Z,0.80
2018-02-11T06:12:04.690Z,0.80
2018-02-11T06:13:05.445Z,0.80
2018-02-11T06:14:04.965Z,0.80
2018-02-11T06:15:05.038Z,0.80
2018-02-11T06:16:05.380Z,0.80
2018-02-11T06:17:04.934Z,0.80
2018-02-11T06:18:04.781Z,0.80
2018-02-11T06:19:04.783Z,0.70
2018-02-11T06:20:04.961Z,0.70
2018-02-11T06:21:05.448Z,0.70
2018-02-11T06:22:04.872Z,0.70
2018-02-11T06:23:04.907Z,0.70
2018-02-11T06:24:05.095Z,0.70
2018-02-11T06:25:04.748Z,0.70
2018-02-11T06:26:05.349Z,0.70
2018-02-11T06:27:05.378Z,0.70
2018-02-11T06:28:05.351Z,0.70
2018-02-11T06:29:04.764Z,0.70
2018-02-11T06:30:05.581Z,0.70
2018-02-11T06:31:05.209Z,0.70
2018-02-11T06:32:05.566Z,0.70
2018-02-11T06:33:05.418Z,0.70
2018-02-11T06:34:05.412Z,0.60
2018-02-11T06:35:05.214Z,0.60
2018-02-11T06:36:04.911Z,0.60
2018-02-11T06:37:04.977Z,0.60
2018-02-11T06:38:05.584Z,0.60
2018-02-11T06:39:05.194Z,0.60
2018-02-11T06:40:05.406Z,0.60
2018-02-11T06:41:04.914Z,0.60
2018-02-11T06:42:05.354Z,0.60
2018-02-11T06:43:04.934Z,0.60
2018-02-11T06:44:04.830Z,0.60
2018-02-11T06:45:05.406Z,0.60
2018-02-11T06:46:05.248Z,0.60
2018-02-11T06:47:04.667Z,0.60
2018-02-11T06:48:04.699Z,0.70
2018-02-11T06:49:04.938Z,0.70
2018-02-11T06:50:04.985Z,0.70
2018-02-11T06:51:05.551Z,0.70
2018-02-11T06:52:05.526Z,0.70
2018-02-11T06:53:05.012Z,0.70
2018-02-11T06:54:05.175Z,0.70
2018-02-11T06:55:05.514Z,0.70
2018-02-11T06:56:04.904Z,0.70
2018-02-11T06:57:05.272Z,0.80
2018-02-11T06:58:05.619Z,0.80
2018-02-11T06:59:04.928Z,0.80
2018-02-11T07:00:05.469Z,0.80
2018-02-11T07:01:05.136Z,0.80
2018-02-11T07:02:05.072Z,0.80
2018-02-11T07:03:04.835Z,0.80
2018-02-11T07:04:04.903Z,0.80
2018-02-11T07:05:04.898Z,0.80
2018-02-11T07:06:04.890Z,0.80
2018-02-11T07:07:05.432Z,0.90
2018-02-11T07:08:05.078Z,0.90
2018-02-11T07:09:05.353Z,0.90
2018-02-11T07:10:04.697Z,0.90
2018-02-11T07:11:04.807Z,0.90
2018-02-11T07:12:05.312Z,0.90
2018-02-11T07:13:05.315Z,0.90
2018-02-11T07:14:05.608Z,0.90
2018-02-11T07:15:05.530Z,0.90
2018-02-11T07:16:04.986Z,0.90
2018-02-11T07:17:04.794Z,0.90
2018-02-11T07:18:06.443Z,0.90
2018-02-11T07:19:05.454Z,0.90
2018-02-11T07:20:04.948Z,0.90
2018-02-11T07:21:05.495Z,0.90
2018-02-11T07:22:05.304Z,0.90
2018-02-11T07:23:04.929Z,1.00
2018-02-11T07:24:05.333Z,1.00
2018-02-11T07:25:04.732Z,1.00
2018-02-11T07:26:04.718Z,1.00
2018-02-11T07:27:04.774Z,1.00
2018-02-11T07:28:05.060Z,1.00
2018-02-11T07:29:05.036Z,1.00
2018-02-11T07:30:05.793Z,1.00
2018-02-11T07:31:05.058Z,1.00
2018-02-11T07:32:04.728Z,1.00
2018-02-11T07:33:05.667Z,1.00
2018-02-11T07:34:04.982Z,1.00
2018-02-11T07:35:05.657Z,1.00
2018-02-11T07:36:05.323Z,1.00
2018-02-11T07:37:05.300Z,1.00
2018-02-11T07:38:05.549Z,1.00
2018-02-11T07:39:05.062Z,1.00
2018-02-11T07:40:04.739Z,1.00
2018-02-11T07:41:05.338Z,1.00
2018-02-11T07:42:05.197Z,1.00
2018-02-11T07:43:05.389Z,1.00
2018-02-11T07:44:05.124Z,1.10
2018-02-11T07:45:05.502Z,1.10
2018-02-11T07:46:05.000Z,1.10
2018-02-11T07:47:05.510Z,1.10
2018-02-11T07:48:05.126Z,1.10
2018-02-11T07:49:04.679Z,1.10
2018-02-11T07:50:05.138Z,1.10
2018-02-11T07:51:04.740Z,1.20
2018-02-11T07:52:05.257Z,1.20
2018-02-11T07:53:04.799Z,1.20
2018-02-11T07:54:05.304Z,1.20
2018-02-11T07:55:04.916Z,1.20
2018-02-11T07:56:05.406Z,1.20
2018-02-11T07:57:05.441Z,1.20
2018-02-11T07:58:05.746Z,1.20
2018-02-11T07:59:05.362Z,1.30
2018-02-11T08:00:05.552Z,1.30
2018-02-11T08:01:05.683Z,1.30
2018-02-11T08:02:04.830Z,1.30
2018-02-11T08:03:05.297Z,1.30
2018-02-11T08:04:05.504Z,1.30
2018-02-11T08:05:05.572Z,1.40
2018-02-11T08:06:05.310Z,1.40
2018-02-11T08:07:05.380Z,1.40
2018-02-11T08:08:06.350Z,1.40
2018-02-11T08:09:05.069Z,1.40
2018-02-11T08:10:05.494Z,1.40
2018-02-11T08:11:05.204Z,1.50
2018-02-11T08:12:05.483Z,1.50
2018-02-11T08:13:05.048Z,1.50
2018-02-11T08:14:05.136Z,1.50
2018-02-11T08:15:04.788Z,1.50
2018-02-11T08:16:05.387Z,1.50
2018-02-11T08:17:04.747Z,1.60
2018-02-11T08:18:05.389Z,1.60
2018-02-11T08:19:05.563Z,1.60
2018-02-11T08:20:04.762Z,1.60
2018-02-11T08:21:04.787Z,1.60
2018-02-11T08:22:05.239Z,1.60
2018-02-11T08:23:04.895Z,1.60
2018-02-11T08:24:05.085Z,1.60
2018-02-11T08:25:05.399Z,1.70
2018-02-11T08:26:05.584Z,1.70
2018-02-11T08:27:05.196Z,1.70
2018-02-11T08:28:05.423Z,1.70
2018-02-11T08:29:04.804Z,1.70
2018-02-11T08:30:05.019Z,1.70
2018-02-11T08:31:04.779Z,1.70
2018-02-11T08:32:04.696Z,1.70
2018-02-11T08:33:05.381Z,1.70
2018-02-11T08:34:04.806Z,1.70
2018-02-11T08:35:05.533Z,1.70
2018-02-11T08:36:05.205Z,1.70
2018-02-11T08:37:04.975Z,1.70
2018-02-11T08:38:05.374Z,1.80
2018-02-11T08:39:05.006Z,1.80
2018-02-11T08:40:04.618Z,1.80
2018-02-11T08:41:04.933Z,1.80
2018-02-11T08:42:05.181Z,1.80
2018-02-11T08:43:04.855Z,1.80
2018-02-11T08:44:05.313Z,1.80
2018-02-11T08:45:05.622Z,1.80
2018-02-11T08:46:04.972Z,1.80
2018-02-11T08:47:05.467Z,1.90
2018-02-11T08:48:05.604Z,1.90
2018-02-11T08:49:04.747Z,1.90
2018-02-11T08:50:05.443Z,1.90
2018-02-11T08:51:05.563Z,1.90
2018-02-11T08:52:05.136Z,1.90
2018-02-11T08:53:05.094Z,1.90
2018-02-11T08:54:04.925Z,1.90
2018-02-11T08:55:05.359Z,2.00
2018-02-11T08:56:04.969Z,2.00
2018-02-11T08:57:04.866Z,2.00
2018-02-11T08:58:05.300Z,2.00
2018-02-11T08:59:05.223Z,2.00
2018-02-11T09:00:04.643Z,2.00
2018-02-11T09:01:05.283Z,2.10
2018-02-11T09:02:05.610Z,2.10
2018-02-11T09:03:05.585Z,2.10
2018-02-11T09:04:05.438Z,2.10
2018-02-11T09:05:04.689Z,2.20
2018-02-11T09:06:05.367Z,2.20
2018-02-11T09:07:05.147Z,2.20
2018-02-11T09:08:04.866Z,2.20
2018-02-11T09:09:05.157Z,2.30
2018-02-11T09:10:04.865Z,2.30
2018-02-11T09:11:05.543Z,2.30
2018-02-11T09:12:05.258Z,2.30
2018-02-11T09:13:06.650Z,2.30
2018-02-11T09:14:04.836Z,2.30
2018-02-11T09:15:05.180Z,2.30
2018-02-11T09:16:05.012Z,2.30
2018-02-11T09:17:04.828Z,2.30
2018-02-11T09:18:05.226Z,2.40
2018-02-11T09:19:04.765Z,2.40
2018-02-11T09:20:05.081Z,2.40
2018-02-11T09:21:04.767Z,2.40
2018-02-11T09:22:04.861Z,2.40
2018-02-11T09:23:05.126Z,2.40
2018-02-11T09:24:05.590Z,2.50
2018-02-11T09:25:05.575Z,2.50
2018-02-11T09:26:05.338Z,2.50
2018-02-11T09:27:05.849Z,2.50
2018-02-11T09:28:05.088Z,2.50
2018-02-11T09:29:05.444Z,2.50
2018-02-11T09:30:05.466Z,2.60
2018-02-11T09:31:05.325Z,2.60
2018-02-11T09:32:05.402Z,2.60
2018-02-11T09:33:05.956Z,2.70
2018-02-11T09:34:04.948Z,2.70
2018-02-11T09:35:04.872Z,2.70
2018-02-11T09:36:05.437Z,2.70
2018-02-11T09:37:05.210Z,2.70
2018-02-11T09:38:04.837Z,2.80
2018-02-11T09:39:05.232Z,2.80
2018-02-11T09:40:05.381Z,2.80
2018-02-11T09:41:04.908Z,2.80
2018-02-11T09:42:04.802Z,2.80
2018-02-11T09:43:04.860Z,2.90
2018-02-11T09:44:04.979Z,2.90
2018-02-11T09:45:04.896Z,2.80
2018-02-11T09:46:05.228Z,2.90
2018-02-11T09:47:04.779Z,2.80
2018-02-11T09:48:05.247Z,2.80
2018-02-11T09:49:05.158Z,2.80
2018-02-11T09:50:04.887Z,2.80
2018-02-11T09:51:05.228Z,2.80
2018-02-11T09:52:04.609Z,2.80
2018-02-11T09:53:05.166Z,2.80
2018-02-11T09:54:05.690Z,2.80
2018-02-11T09:55:05.156Z,2.80
2018-02-11T09:56:05.167Z,2.80
2018-02-11T09:57:04.677Z,2.80
2018-02-11T09:58:05.140Z,2.80
2018-02-11T09:59:05.033Z,2.70
2018-02-11T10:00:05.182Z,2.70
2018-02-11T10:01:04.897Z,2.70
2018-02-11T10:02:05.353Z,2.60
2018-02-11T10:03:05.164Z,2.60
2018-02-11T10:04:04.898Z,2.60
2018-02-11T10:05:05.581Z,2.50
2018-02-11T10:06:05.180Z,2.50
2018-02-11T10:07:05.491Z,2.50
2018-02-11T10:08:05.211Z,2.50
2018-02-11T10:09:05.269Z,2.50
2018-02-11T10:10:05.571Z,2.50
2018-02-11T10:11:06.711Z,2.50
2018-02-11T10:12:05.263Z,2.40
2018-02-11T10:13:05.187Z,2.40
2018-02-11T10:14:05.283Z,2.40
2018-02-11T10:15:05.120Z,2.40
2018-02-11T10:16:04.750Z,2.40
2018-02-11T10:17:05.359Z,2.40
2018-02-11T10:18:05.379Z,2.40
2018-02-11T10:19:04.747Z,2.40
2018-02-11T10:20:05.430Z,2.50
2018-02-11T10:21:05.092Z,2.50
2018-02-11T10:22:05.236Z,2.50
2018-02-11T10:23:04.922Z,2.50
2018-02-11T10:24:05.164Z,2.50
2018-02-11T10:25:04.873Z,2.60
2018-02-11T10:26:05.060Z,2.60
2018-02-11T10:27:05.059Z,2.60
2018-02-11T10:28:04.923Z,2.70
2018-02-11T10:29:05.062Z,2.70
2018-02-11T10:30:04.676Z,2.70
2018-02-11T10:31:05.643Z,2.80
2018-02-11T10:32:05.538Z,2.80
2018-02-11T10:33:05.244Z,2.80
2018-02-11T10:34:05.010Z,2.80
2018-02-11T10:35:05.052Z,2.90
2018-02-11T10:36:05.346Z,2.90
2018-02-11T10:37:05.105Z,2.90
2018-02-11T10:38:04.903Z,2.90
2018-02-11T10:39:05.499Z,2.90
2018-02-11T10:40:05.408Z,3.00
2018-02-11T10:41:04.795Z,2.90
2018-02-11T10:42:05.345Z,2.90
2018-02-11T10:43:05.842Z,2.90
2018-02-11T10:44:05.097Z,2.90
2018-02-11T10:45:05.550Z,2.90
2018-02-11T10:46:05.152Z,2.90
2018-02-11T10:47:05.738Z,2.90
2018-02-11T10:48:04.955Z,2.90
2018-02-11T10:49:05.201Z,2.90
2018-02-11T10:50:05.400Z,2.90
2018-02-11T10:51:05.408Z,2.90
2018-02-11T10:52:05.346Z,2.90
2018-02-11T10:53:05.083Z,2.80
2018-02-11T10:54:05.574Z,2.80
2018-02-11T10:55:05.371Z,2.90
2018-02-11T10:56:05.243Z,2.90
2018-02-11T10:57:04.996Z,2.80
2018-02-11T10:58:05.534Z,2.80
2018-02-11T10:59:05.651Z,2.80
2018-02-11T11:00:05.630Z,2.80
2018-02-11T11:01:04.956Z,2.80
2018-02-11T11:02:04.906Z,2.80
2018-02-11T11:03:05.399Z,2.80
2018-02-11T11:04:05.877Z,2.80
2018-02-11T11:05:05.004Z,2.80
2018-02-11T11:06:05.488Z,2.80
2018-02-11T11:07:05.629Z,2.80
2018-02-11T11:08:04.922Z,2.80
2018-02-11T11:09:05.202Z,2.70
2018-02-11T11:10:05.628Z,2.70
2018-02-11T11:11:06.771Z,2.70
2018-02-11T11:12:05.043Z,2.70
2018-02-11T11:13:05.387Z,2.70
2018-02-11T11:14:04.941Z,2.70
2018-02-11T11:15:05.262Z,2.70
2018-02-11T11:16:05.522Z,2.70
2018-02-11T11:17:05.103Z,2.70
2018-02-11T11:18:05.325Z,2.70
2018-02-11T11:19:05.725Z,2.70
2018-02-11T11:20:05.179Z,2.70
2018-02-11T11:21:05.598Z,2.70
2018-02-11T11:22:04.728Z,2.70
2018-02-11T11:23:05.538Z,2.70
2018-02-11T11:24:04.976Z,2.70
2018-02-11T11:25:05.538Z,2.70
2018-02-11T11:26:05.641Z,2.70
2018-02-11T11:27:05.039Z,2.70
2018-02-11T11:28:04.976Z,2.70
2018-02-11T11:29:05.360Z,2.70
2018-02-11T11:30:05.333Z,2.70
2018-02-11T11:31:05.281Z,2.70
2018-02-11T11:32:05.575Z,2.70
2018-02-11T11:33:05.657Z,2.70
2018-02-11T11:34:04.678Z,2.70
2018-02-11T11:35:04.828Z,2.70
2018-02-11T11:36:05.574Z,2.70
2018-02-11T11:37:04.710Z,2.70
2018-02-11T11:38:05.230Z,2.70
2018-02-11T11:39:04.723Z,2.70
2018-02-11T11:40:04.779Z,2.70
2018-02-11T11:41:04.999Z,2.70
2018-02-11T11:42:05.135Z,2.70
2018-02-11T11:43:05.565Z,2.60
2018-02-11T11:44:04.939Z,2.70
2018-02-11T11:45:05.315Z,2.60
2018-02-11T11:46:05.055Z,2.60
2018-02-11T11:47:04.723Z,2.60
2018-02-11T11:48:05.376Z,2.60
2018-02-11T11:49:05.384Z,2.60
2018-02-11T11:50:05.477Z,2.60
2018-02-11T11:51:04.958Z,2.60
2018-02-11T11:52:05.501Z,2.60
2018-02-11T11:53:05.632Z,2.60
2018-02-11T11:54:05.434Z,2.70
2018-02-11T11:55:05.550Z,2.70
2018-02-11T11:56:04.693Z,2.70
2018-02-11T11:57:04.889Z,2.70
2018-02-11T11:58:05.044Z,2.70
2018-02-11T11:59:05.472Z,2.70
2018-02-11T12:00:05.257Z,2.70
2018-02-11T12:01:05.028Z,2.70
2018-02-11T12:02:05.459Z,2.70
2018-02-11T12:03:04.905Z,2.70
2018-02-11T12:04:05.340Z,2.70
2018-02-11T12:05:04.909Z,2.70
2018-02-11T12:06:05.055Z,2.70
2018-02-11T12:07:04.752Z,2.70
2018-02-11T12:08:05.385Z,2.70
2018-02-11T12:09:05.706Z,2.70
2018-02-11T12:10:05.202Z,2.70
2018-02-11T12:11:10.648Z,2.70
2018-02-11T12:12:04.735Z,2.70
2018-02-11T12:13:05.191Z,2.70
2018-02-11T12:14:05.604Z,2.70
2018-02-11T12:15:05.091Z,2.70
2018-02-11T12:16:05.399Z,2.80
2018-02-11T12:17:04.782Z,2.80
2018-02-11T12:18:04.854Z,2.80
2018-02-11T12:19:05.489Z,2.80
2018-02-11T12:20:05.392Z,2.80
2018-02-11T12:21:05.242Z,2.80
2018-02-11T12:22:04.880Z,2.80
2018-02-11T12:23:04.621Z,2.80
2018-02-11T12:24:05.022Z,2.80
2018-02-11T12:25:05.389Z,2.80
2018-02-11T12:26:04.739Z,2.80
2018-02-11T12:27:04.834Z,2.80
2018-02-11T12:28:05.012Z,2.80
2018-02-11T12:29:05.419Z,2.80
2018-02-11T12:30:04.748Z,2.80
2018-02-11T12:31:04.929Z,2.80
2018-02-11T12:32:04.672Z,2.70
2018-02-11T12:33:05.078Z,2.70
2018-02-11T12:34:04.797Z,2.70
2018-02-11T12:35:04.915Z,2.70
2018-02-11T12:36:05.382Z,2.70
2018-02-11T12:37:04.648Z,2.70
2018-02-11T12:38:05.347Z,2.70
2018-02-11T12:39:05.974Z,2.70
2018-02-11T12:40:04.890Z,2.70
2018-02-11T12:41:05.526Z,2.70
2018-02-11T12:42:04.796Z,2.70
2018-02-11T12:43:05.040Z,2.70
2018-02-11T12:44:04.711Z,2.70
2018-02-11T12:45:05.293Z,2.70
2018-02-11T12:46:05.281Z,2.70
2018-02-11T12:47:04.899Z,2.70
2018-02-11T12:48:05.169Z,2.70
2018-02-11T12:49:05.022Z,2.70
2018-02-11T12:50:05.614Z,2.70
2018-02-11T12:51:05.408Z,2.70
2018-02-11T12:52:04.899Z,2.70
2018-02-11T12:53:04.693Z,2.70
2018-02-11T12:54:05.100Z,2.70
2018-02-11T12:55:05.430Z,2.70
2018-02-11T12:56:05.421Z,2.70
2018-02-11T12:57:05.305Z,2.70
2018-02-11T12:58:04.899Z,2.70
2018-02-11T12:59:05.605Z,2.70
2018-02-11T13:00:05.314Z,2.70
2018-02-11T13:01:05.489Z,2.70
2018-02-11T13:02:05.530Z,2.70
2018-02-11T13:03:05.329Z,2.70
2018-02-11T13:04:05.457Z,2.70
2018-02-11T13:05:05.073Z,2.70
2018-02-11T13:06:05.448Z,2.70
2018-02-11T13:07:04.966Z,2.70
2018-02-11T13:08:04.745Z,2.70
2018-02-11T13:09:05.553Z,2.70
2018-02-11T13:10:05.714Z,2.70
2018-02-11T13:11:05.144Z,2.70
2018-02-11T13:12:05.220Z,2.70
2018-02-11T13:13:05.430Z,2.70
2018-02-11T13:14:04.887Z,2.70
2018-02-11T13:15:04.950Z,2.70
2018-02-11T13:16:05.329Z,2.70
2018-02-11T13:17:05.438Z,2.70
2018-02-11T13:18:05.271Z,2.70